DAOB

Bou Chekif Airport

Airport
ICAO code
DAOB
IATA Code
TID
Summary
ICAO Region
AFI
ICAO Territory
Location

, Tiaret

Serving
Tiaret
Elevation
3245 ft
Coordinates
35° 20' 28" N , 1° 27' 47" E
Metar
DAOB 271000Z 27017KT 8000 FEW013 BKN020 06/03 Q1010

Runways

Designator Length Width Surface Rops
8/26 3000 45 ASP No/No

Airport map

Aerial View

SKYbrary Partners:

Safety knowledge contributed by: